Brown Field Municipal Airport
KSDM : now visible

Airfield :











YOU CAN JOIN US ON...

 
LOGIN :

Register | Disclaimer

   EN    FR    IT 

 









Legend :    VFR   Marginal VFR   IFR   Intensive IFR   Very Intensive IFR
Visi :
Ceiling :
>= 8 km
>= 3000ft
5 to 8 km
1000 to 3000 ft
1500m to 5 km
500 to 1000 ft
800 to 1500m
200 to 500 ft
< 800m
< 200 ft
Symbols :   Thunderstorms  Fog  Heavy snow  Heavy precipitations  Wind > 20 kt






- Airport Elevation : 526 ft


KSDM - Brown Field Municipal

CURRENT METAR :
  • 241416Z AUTO 06003KT 4SM HZ OVC006 18/16 A2994 RMK AO2 T01830156

EXPIRED METARs :
  • 241353Z AUTO 00000KT 6SM BR OVC007 18/16 A2994 RMK AO2 SLP133 T01780156
  • 241305Z AUTO 00000KT 7SM OVC007 18/16 A2994 RMK AO2 T01830156
  • 241253Z AUTO 00000KT 8SM OVC008 18/16 A2994 RMK AO2 SLP135 T01830156
  • 241246Z AUTO 00000KT 8SM OVC008 18/16 A2994 RMK AO2 T01830156
  • 241205Z AUTO 22003KT 8SM OVC007 18/16 A2993 RMK AO2 T01780156
  • 241153Z AUTO 00000KT 7SM OVC006 18/16 A2993 RMK AO2 SLP131 T01830161 10183 20161 53003

TAF N/A
KZLA FIR / North America



MET'MAP, your aeronautical weather chart ! - Copyright ORBIFLY December 2007 - Disclaimer

ORBIFLY MET'MAP TEAM :

Programming & Development : Alexandra Zaïnal
Concept & original design : Baudouin d'Aumeries
Assistance for programming : Marc-Olivier Méhu
Technical & hardware support : Manuel Goepfert

Contact : metmap@orbifly.com




SOURCES & CREDITS :

   NOAA       Earth
Advisory